Flight Track Log - Related Links

Times and Time Zones

All times are in EDT time to prevent confusion due to time zone crossing. See the TMC440 flight status page for this flight to view local times or setup timezone preferences in your user account.

Time Position Orientation Groundspeed Altitude Reporting Facility
EDT Latitude Longitude Course Direction KTS MPH feet Rate Location/Type
Wed 05:20:22 PM 40.8167 -74.1667 252° West 196 226 1,800  Level New York TRACON
Wed 05:21:17 PM 40.8000 -74.2333 252° West 208 239 3,900 2,504 Climbing New York TRACON
Wed 05:22:17 PM 40.7667 -74.3000 237° Southwest 225 259 6,600 1,600 Climbing New York TRACON
Wed 05:23:17 PM 40.7333 -74.3833 242° Southwest 248 285 7,100 164 Climbing New York TRACON
Wed 05:30:50 PM 40.5667 -75.1333 254° West 287 330 8,000 109 Climbing Philadelphia TRACON
Wed 05:31:32 PM 40.5500 -75.2000 252° West 284 327 8,000 -412 Level Philadelphia TRACON
Wed 05:32:32 PM 40.5333 -75.3000 258° West 275 316 7,300 -500 Descending Philadelphia TRACON
Wed 05:33:32 PM 40.4833 -75.3500 217° Southwest 241 277 7,000 -200 Descending Philadelphia TRACON
Wed 05:34:32 PM 40.4167 -75.4000 210° Southwest 262 302 6,900  Descending Philadelphia TRACON
Wed 05:35:26 PM 40.3667 -75.4333 207° Southwest 270 311 7,000 50 Climbing Philadelphia TRACON
Wed 05:36:32 PM 40.2833 -75.5000 211° Southwest 276 318 7,000  Level Philadelphia TRACON
Wed 05:37:26 PM 40.2333 -75.5333 207° Southwest 276 318 7,000  Level Philadelphia TRACON
Wed 05:38:26 PM 40.1667 -75.5833 210° Southwest 279 321 7,000  Level Philadelphia TRACON
Wed 05:39:26 PM 40.0833 -75.6333 205° Southwest 281 323 7,000  Level Philadelphia TRACON
Wed 05:40:26 PM 40.0167 -75.6667 201° Southwest 281 323 7,000 -810 Level Philadelphia TRACON
Wed 05:41:32 PM 39.9500 -75.7167 210° Southwest 264 304 5,300 -1,524 Descending Philadelphia TRACON
Wed 05:42:32 PM 39.8833 -75.7667 210° Southwest 257 296 3,800 -1,150 Descending Philadelphia TRACON
Wed 05:43:32 PM 39.8167 -75.8000 201° Southwest 234 269 3,000 -400 Descending Philadelphia TRACON
Wed 05:44:32 PM 39.7667 -75.8500 232° Southwest 241 277 3,000  Level Philadelphia TRACON
Wed 05:45:32 PM 39.7167 -75.8667 194° South 201 231 3,000 -350 Level Philadelphia TRACON
Wed 05:46:32 PM 39.6500 -75.8500 169° South 209 241 2,300 -500 Descending Philadelphia TRACON
Wed 05:47:32 PM 39.6500 -75.7833 90° East 175 201 2,000 -238 Descending Philadelphia TRACON
Wed 05:48:38 PM 39.6667 -75.7333 67° East 152 175 1,800 -476 Descending Philadelphia TRACON
Wed 05:49:38 PM 39.6667 -75.6833 90° East 138 159 1,000 -700 Descending Philadelphia TRACON
Wed 05:50:38 PM 39.6833 -75.6333 67° East 112 129 400 -600 Descending Philadelphia TRACON
Wed 05:52:00 PM 39.6787 -75.6066 117° Southeast  Level Estimated

Login

Don't have an account? Register now (free) for customized features, flight alerts, and more!